Nearby METAR Reports

KLNK - Lincoln, Nebraska, USA
Distance from station: WNW 8mi, 13km
Updated: Fri, 30-Jul-2021 12:54am CDT
Clear
Clear
 Wind from NE
Wind: NE 7 mph , 11 km/h
Temperature: 81°F , 27°C
Heat Index: 86°F , 30°C
Dew Point: 73°F , 23°C
Humidity: 79%
Barometer: 30.08 inHg , 1018.6 hPa
Clouds: Clear
Visibility: 8 miles , 13 km
2021/07/30 05:54 KLNK 300554Z 04006KT 8SM CLR 27/23 A3008 RMK AO2 SLP172 T02670228 10306 20267 403610233 58002
KAHQ - Wahoo, Nebraska, USA
Distance from station: N 31mi, 49km
Updated: Fri, 30-Jul-2021 12:55am CDT
Partly Cloudy
Partly Cloudy
 Wind from calm
Wind: Calm
Temperature: 77°F , 25°C
Dew Point: 73°F , 23°C
Humidity: 89%
Barometer: 30.10 inHg , 1019.3 hPa
Clouds: Partly Cloudy
Visibility: 7 miles , 11 km
Cloud details: Partly Cloudy 4500 ft
2021/07/30 05:55 KAHQ 300555Z AUTO 00000KT 7SM SCT045 25/23 A3010 RMK AO2 T02460232 10307 20246 403330245
 
KBIE - Beatrice Municip, Nebraska, USA
Distance from station: S 36mi, 57km
Updated: Fri, 30-Jul-2021 12:55am CDT
Clear
Clear
 Wind from NE
Wind: NE 5 mph , 7 km/h
Temperature: 79°F , 26°C
Dew Point: 77°F , 25°C
Humidity: 94%
Barometer: 30.08 inHg , 1018.6 hPa
Clouds: Clear
Visibility: 10 miles , 16 km
2021/07/30 05:55 KBIE 300555Z AUTO 05004KT 10SM CLR 26/25 A3008 RMK AO2 T02610248 10336 20261 403650237
KMLE - Omaha/Millard, Nebraska, USA
Distance from station: NE 39mi, 63km
Updated: Fri, 30-Jul-2021 12:55am CDT
Clear
Clear
 Wind from calm
Wind: Calm
Temperature: 81°F , 27°C
Heat Index: 85°F , 29°C
Dew Point: 70°F , 21°C
Humidity: 70%
Barometer: 30.08 inHg , 1018.6 hPa
Clouds: Clear
Visibility: 10 miles , 16 km
2021/07/30 05:55 KMLE 300555Z AUTO 00000KT 10SM CLR 27/21 A3008 RMK AO2 T02730210 10320 20273 403490268
 
KPMV - Plattsmouth Muni, Nebraska, USA
Distance from station: ENE 39mi, 63km
Updated: Fri, 30-Jul-2021 12:55am CDT
Clear
Clear
 Wind from ENE
Wind: ENE 6 mph , 9 km/h
Temperature: 79°F , 26°C
Dew Point: 72°F , 22°C
Humidity: 79%
Barometer: 30.09 inHg , 1019 hPa
Clouds: Clear
Visibility: 10 miles , 16 km
2021/07/30 05:55 KPMV 300555Z AUTO 06005KT 10SM CLR 26/22 A3009 RMK AO2 T02550220 10305 20255
KAFK - Nebraska City, Nebraska, USA
Distance from station: ESE 43mi, 69km
Updated: Fri, 30-Jul-2021 12:55am CDT
Clear
Clear
 Wind from NE
Wind: NE 8 mph , 13 km/h
Temperature: 79°F , 26°C
Dew Point: 77°F , 25°C
Humidity: 94%
Barometer: 30.07 inHg , 1018.3 hPa
Clouds: Clear
Visibility: 10 miles , 16 km
2021/07/30 05:55 KAFK 300555Z AUTO 04007KT 10SM CLR 26/25 A3007 RMK AO2 T02570246 10310 20256 403420248
 
KOFF - Offutt Afb/Belle, Nebraska, USA
Distance from station: ENE 44mi, 70km
Updated: Fri, 30-Jul-2021 12:56am CDT
Clear
Clear
 Wind from ENE
Wind: ENE 8 mph , 13 km/h
Temperature: 79°F , 26°C
Dew Point: 70°F , 21°C
Humidity: 74%
Barometer: 30.10 inHg , 1019.3 hPa
Clouds: Clear
Visibility: 10 miles , 16 km
2021/07/30 05:56 KOFF 300556Z 06007KT 10SM SKC 26/21 A3010 RMK AO2A SLP186 T02600212 10286 20260 403660246 PWINO PNO FZRANO TSNO VISNO RWY12 CHINO RWY12 $
KFET - Fremont Muni Arp, Nebraska, USA
Distance from station: N 46mi, 74km
Updated: Fri, 30-Jul-2021 12:55am CDT
Clear
Clear
 Wind from NE
Wind: NE 6 mph , 9 km/h
Temperature: 77°F , 25°C
Dew Point: 72°F , 22°C
Humidity: 83%
Barometer: 30.10 inHg , 1019.3 hPa
Clouds: Clear
Visibility: 7 miles , 11 km
2021/07/30 05:55 KFET 300555Z AUTO 05005KT 7SM CLR 25/22 A3010 RMK AO2 T02520215 10308 20252 403240245
 
KBTA - Blair Muni, Nebraska, USA
Distance from station: NNE 51mi, 82km
Updated: Fri, 30-Jul-2021 12:55am CDT
Clear
Clear
 Wind from NE
Wind: NE 8 mph , 13 km/h
Temperature: 75°F , 24°C
Dew Point: 70°F , 21°C
Humidity: 83%
Barometer: 30.09 inHg , 1019 hPa
Clouds: Clear
Visibility: 7 miles , 11 km
2021/07/30 05:55 KBTA 300555Z AUTO 04007KT 7SM CLR 24/21 A3009 RMK AO2 T02430210 10298 20243 403190240
KJYR - York, Nebraska, USA
Distance from station: W 52mi, 84km
Updated: Fri, 30-Jul-2021 12:55am CDT

 Wind from ENE
Wind: ENE 6 mph , 9 km/h
Temperature: 75°F , 24°C
Dew Point: 73°F , 23°C
Humidity: 94%
Barometer: 30.10 inHg , 1019.3 hPa
Visibility: 10 miles , 16 km
2021/07/30 05:55 KJYR 300555Z AUTO 07005KT 10SM 24/23 A3010 RMK AO2
 
KOMA - Omaha/Eppley, Nebraska, USA
Distance from station: NE 53mi, 85km
Updated: Fri, 30-Jul-2021 12:52am CDT
Partly Cloudy
Partly Cloudy
 Wind from NE
Wind: NE 12 mph , 19 km/h
Temperature: 81°F , 27°C
Heat Index: 85°F , 29°C
Dew Point: 70°F , 21°C
Humidity: 70%
Barometer: 30.08 inHg , 1018.6 hPa
Clouds: Partly Cloudy
Visibility: 9 miles , 14 km
Cloud details: Partly Cloudy 5000 ft
2021/07/30 05:52 KOMA 300552Z 05010KT 9SM SCT050 27/21 A3008 RMK AO2 SLP173 T02670206 10328 20267 403560261 50004
KOLU - Columbus Muni, Nebraska, USA
Distance from station: NW 58mi, 93km
Updated: Fri, 30-Jul-2021 12:56am CDT
Partly Cloudy
Partly Cloudy
 Wind from ENE
Wind: ENE 9 mph , 15 km/h
Temperature: 75°F , 24°C
Dew Point: 73°F , 23°C
Humidity: 94%
Barometer: 30.11 inHg , 1019.6 hPa
Clouds: Partly Cloudy
Visibility: 8 miles , 13 km
Cloud details: Partly Cloudy 3800 ft
Partly Cloudy 11000 ft
2021/07/30 05:56 KOLU 300556Z AUTO 06008KT 8SM SCT038 SCT110 24/23 A3011 RMK AO2 SLP186 T02390228 10300 20239 403110228 50001